PWSweather.com
Personal Weather Stations
Station Observations
KCTHAMDEN
Dunbar Hill, Hamden, CT 06514

Dunbar HillHamden, CT 06514

Lat: 41.365437, Lon: -72.956532

Elevation: 200

Station Type: Davis Vantage Pro2+

www.hamdenweather.com

High Low Average
Temperature 89.9°F32.2°C 72.5°F22.5°C 79.5°F26.4°C
Dew Point 75.5°F24.2°C 64.1°F17.8°C 70.7°F21.5°C
Winds 5.8 mph 9.3 kmh Calm Calm 2.0 mph SSW3.2 kmh SSW
Wind Gusts 14.0 mph22.5 kmh -- 3.0 mph4.8 kmh
Humidity 97% 52% 77%
Pressure 30.16 in1021.3 mb 29.92 in1013.2 mb -
Precipitation 0.00 in0.0 mm - -
Hour Temp Dew Point Humidity Winds Wind Gusts Pressure Precip Precip Rate Daily Precip Total
12:00 AM 74.5°F23.6°C 72.6°F22.6°C 94% Calm Calm -- 29.94 in1013.9 mb - 0.00 in0.0 mm 0.00 in0.0 mm
12:15 AM 74.3°F23.5°C 72.5°F22.5°C 94% Calm Calm -- 29.94 in1013.9 mb - 0.00 in0.0 mm 0.00 in0.0 mm
12:30 AM 74.1°F23.4°C 72.2°F22.3°C 94% Calm Calm -- 29.93 in1013.5 mb - 0.00 in0.0 mm 0.00 in0.0 mm
12:45 AM 73.8°F23.2°C 72.0°F22.2°C 94% Calm Calm -- 29.93 in1013.5 mb - 0.00 in0.0 mm 0.00 in0.0 mm
01:00 AM 73.6°F23.1°C 71.8°F22.1°C 94% Calm Calm -- 29.93 in1013.5 mb - 0.00 in0.0 mm 0.00 in0.0 mm
01:15 AM 73.4°F23.0°C 71.6°F22.0°C 94% Calm Calm -- 29.92 in1013.2 mb - 0.00 in0.0 mm 0.00 in0.0 mm
01:30 AM 73.3°F22.9°C 71.8°F22.1°C 95% Calm Calm -- 29.92 in1013.2 mb - 0.00 in0.0 mm 0.00 in0.0 mm
01:45 AM 73.2°F22.9°C 71.7°F22.1°C 95% Calm Calm -- 29.92 in1013.2 mb - 0.00 in0.0 mm 0.00 in0.0 mm
02:00 AM 73.0°F22.8°C 71.5°F21.9°C 95% Calm Calm -- 29.92 in1013.2 mb - 0.00 in0.0 mm 0.00 in0.0 mm
02:15 AM 73.1°F22.8°C 71.9°F22.2°C 96% 0.5 mph WSW0.8 kmh WSW 2.0 mph3.2 kmh 29.92 in1013.2 mb - 0.00 in0.0 mm 0.00 in0.0 mm
02:30 AM 73.3°F22.9°C 72.1°F22.3°C 96% Calm Calm -- 29.92 in1013.2 mb - 0.00 in0.0 mm 0.00 in0.0 mm
02:45 AM 73.4°F23.0°C 72.2°F22.3°C 96% Calm Calm -- 29.92 in1013.2 mb - 0.00 in0.0 mm 0.00 in0.0 mm
03:00 AM 73.8°F23.2°C 72.6°F22.6°C 96% 0.2 mph S0.3 kmh S -- 29.92 in1013.2 mb - 0.00 in0.0 mm 0.00 in0.0 mm
03:15 AM 73.9°F23.3°C 72.7°F22.6°C 96% 0.4 mph S0.6 kmh S 1.0 mph1.6 kmh 29.92 in1013.2 mb - 0.00 in0.0 mm 0.00 in0.0 mm
03:30 AM 74.0°F23.3°C 72.8°F22.7°C 96% Calm Calm -- 29.92 in1013.2 mb - 0.00 in0.0 mm 0.00 in0.0 mm
03:45 AM 73.9°F23.3°C 72.7°F22.6°C 96% Calm Calm -- 29.92 in1013.2 mb - 0.00 in0.0 mm 0.00 in0.0 mm
04:00 AM 73.7°F23.2°C 72.5°F22.5°C 96% Calm Calm -- 29.93 in1013.5 mb - 0.00 in0.0 mm 0.00 in0.0 mm
04:15 AM 73.5°F23.1°C 72.0°F22.2°C 95% 0.1 mph S0.2 kmh S -- 29.92 in1013.2 mb - 0.00 in0.0 mm 0.00 in0.0 mm
04:30 AM 73.2°F22.9°C 71.7°F22.1°C 95% Calm Calm -- 29.93 in1013.5 mb - 0.00 in0.0 mm 0.00 in0.0 mm
04:45 AM 73.1°F22.8°C 71.9°F22.2°C 96% Calm Calm -- 29.93 in1013.5 mb - 0.00 in0.0 mm 0.00 in0.0 mm
05:00 AM 72.9°F22.7°C 71.7°F22.1°C 96% Calm Calm -- 29.93 in1013.5 mb - 0.00 in0.0 mm 0.00 in0.0 mm
05:15 AM 72.8°F22.7°C 71.6°F22.0°C 96% Calm Calm -- 29.94 in1013.9 mb - 0.00 in0.0 mm 0.00 in0.0 mm
05:30 AM 72.6°F22.6°C 71.4°F21.9°C 96% Calm Calm -- 29.94 in1013.9 mb - 0.00 in0.0 mm 0.00 in0.0 mm
05:45 AM 72.5°F22.5°C 71.3°F21.8°C 96% Calm Calm -- 29.95 in1014.2 mb - 0.00 in0.0 mm 0.00 in0.0 mm
06:00 AM 72.5°F22.5°C 71.3°F21.8°C 96% Calm Calm -- 29.96 in1014.6 mb - 0.00 in0.0 mm 0.00 in0.0 mm
06:15 AM 72.6°F22.6°C 71.4°F21.9°C 96% Calm Calm -- 29.96 in1014.6 mb - 0.00 in0.0 mm 0.00 in0.0 mm
06:30 AM 73.2°F22.9°C 72.3°F22.4°C 97% Calm Calm -- 29.97 in1014.9 mb - 0.00 in0.0 mm 0.00 in0.0 mm
06:45 AM 74.0°F23.3°C 73.1°F22.8°C 97% Calm Calm -- 29.97 in1014.9 mb - 0.00 in0.0 mm 0.00 in0.0 mm
07:00 AM 75.1°F23.9°C 74.2°F23.4°C 97% 0.3 mph SSW0.5 kmh SSW 2.0 mph3.2 kmh 29.98 in1015.2 mb - 0.00 in0.0 mm 0.00 in0.0 mm
07:15 AM 76.5°F24.7°C 75.2°F24.0°C 96% 0.8 mph WNW1.3 kmh WNW 3.0 mph4.8 kmh 29.98 in1015.2 mb - 0.00 in0.0 mm 0.00 in0.0 mm
07:30 AM 78.0°F25.6°C 75.4°F24.1°C 92% 0.9 mph NE1.4 kmh NE 4.0 mph6.4 kmh 29.98 in1015.2 mb - 0.00 in0.0 mm 0.00 in0.0 mm
07:45 AM 79.8°F26.6°C 74.9°F23.8°C 85% 1.9 mph NE3.1 kmh NE 2.0 mph3.2 kmh 29.99 in1015.6 mb - 0.00 in0.0 mm 0.00 in0.0 mm
08:00 AM 81.5°F27.5°C 75.5°F24.2°C 82% 1.1 mph WSW1.8 kmh WSW 2.0 mph3.2 kmh 29.99 in1015.6 mb - 0.00 in0.0 mm 0.00 in0.0 mm
08:15 AM 82.6°F28.1°C 74.7°F23.7°C 77% 1.8 mph ESE2.9 kmh ESE 4.0 mph6.4 kmh 29.99 in1015.6 mb - 0.00 in0.0 mm 0.00 in0.0 mm
08:30 AM 83.0°F28.3°C 74.3°F23.5°C 75% 4.1 mph NNE6.6 kmh NNE 7.0 mph11.3 kmh 30.00 in1015.9 mb - 0.00 in0.0 mm 0.00 in0.0 mm
08:45 AM 83.6°F28.7°C 73.2°F22.9°C 71% 3.3 mph N5.3 kmh N 3.0 mph4.8 kmh 30.00 in1015.9 mb - 0.00 in0.0 mm 0.00 in0.0 mm
09:00 AM 84.6°F29.2°C 72.8°F22.7°C 68% 2.7 mph 4.3 kmh 4.0 mph6.4 kmh 30.00 in1015.9 mb - 0.00 in0.0 mm 0.00 in0.0 mm
09:15 AM 85.5°F29.7°C 73.3°F22.9°C 67% 1.6 mph NNE2.6 kmh NNE 3.0 mph4.8 kmh 30.00 in1015.9 mb - 0.00 in0.0 mm 0.00 in0.0 mm
09:30 AM 85.8°F29.9°C 71.7°F22.1°C 63% 2.2 mph NE3.5 kmh NE 4.0 mph6.4 kmh 30.01 in1016.3 mb - 0.00 in0.0 mm 0.00 in0.0 mm
09:45 AM 86.1°F30.1°C 73.0°F22.8°C 65% 2.9 mph NNE4.7 kmh NNE 8.0 mph12.9 kmh 30.01 in1016.3 mb - 0.00 in0.0 mm 0.00 in0.0 mm
10:00 AM 86.3°F30.2°C 70.8°F21.6°C 60% 3.8 mph S6.1 kmh S 4.0 mph6.4 kmh 30.01 in1016.3 mb - 0.00 in0.0 mm 0.00 in0.0 mm
10:15 AM 86.8°F30.4°C 74.1°F23.4°C 66% 2.9 mph E4.7 kmh E 7.0 mph11.3 kmh 30.01 in1016.3 mb - 0.00 in0.0 mm 0.00 in0.0 mm
10:30 AM 87.1°F30.6°C 73.4°F23.0°C 64% 2.2 mph N3.5 kmh N 3.0 mph4.8 kmh 30.01 in1016.3 mb - 0.00 in0.0 mm 0.00 in0.0 mm
10:45 AM 87.6°F30.9°C 72.4°F22.4°C 61% 3.1 mph N5.0 kmh N 4.0 mph6.4 kmh 30.01 in1016.3 mb - 0.00 in0.0 mm 0.00 in0.0 mm
11:00 AM 87.5°F30.8°C 73.3°F22.9°C 63% 4.3 mph N6.9 kmh N 8.0 mph12.9 kmh 30.01 in1016.3 mb - 0.00 in0.0 mm 0.00 in0.0 mm
11:15 AM 87.8°F31.0°C 71.2°F21.8°C 58% 3.2 mph NW5.1 kmh NW 4.0 mph6.4 kmh 30.01 in1016.3 mb - 0.00 in0.0 mm 0.00 in0.0 mm
11:30 AM 87.8°F31.0°C 71.2°F21.8°C 58% 4.8 mph WSW7.7 kmh WSW 14.0 mph22.5 kmh 30.02 in1016.6 mb - 0.00 in0.0 mm 0.00 in0.0 mm
11:45 AM 88.1°F31.2°C 73.0°F22.8°C 61% 2.5 mph WSW4.0 kmh WSW 4.0 mph6.4 kmh 30.01 in1016.3 mb - 0.00 in0.0 mm 0.00 in0.0 mm
12:00 PM 88.3°F31.3°C 73.1°F22.8°C 61% 4.0 mph NNE6.4 kmh NNE 9.0 mph14.5 kmh 30.01 in1016.3 mb - 0.00 in0.0 mm 0.00 in0.0 mm
12:15 PM 88.6°F31.4°C 71.9°F22.2°C 58% 5.3 mph N8.5 kmh N 8.0 mph12.9 kmh 30.02 in1016.6 mb - 0.00 in0.0 mm 0.00 in0.0 mm
12:30 PM 89.2°F31.8°C 72.5°F22.5°C 58% 3.6 mph NE5.8 kmh NE 4.0 mph6.4 kmh 30.02 in1016.6 mb - 0.00 in0.0 mm 0.00 in0.0 mm
12:45 PM 89.9°F32.2°C 72.1°F22.3°C 56% 5.3 mph WSW8.5 kmh WSW 10.0 mph16.1 kmh 30.02 in1016.6 mb - 0.00 in0.0 mm 0.00 in0.0 mm
01:00 PM 88.6°F31.4°C 70.3°F21.3°C 55% 3.1 mph NNE5.0 kmh NNE 7.0 mph11.3 kmh 30.02 in1016.6 mb - 0.00 in0.0 mm 0.00 in0.0 mm
01:15 PM 88.9°F31.6°C 71.7°F22.1°C 57% 5.8 mph W9.3 kmh W 9.0 mph14.5 kmh 30.02 in1016.6 mb - 0.00 in0.0 mm 0.00 in0.0 mm
01:30 PM 89.4°F31.9°C 71.6°F22.0°C 56% 2.6 mph N4.2 kmh N 4.0 mph6.4 kmh 30.02 in1016.6 mb - 0.00 in0.0 mm 0.00 in0.0 mm
01:45 PM 89.7°F32.1°C 70.3°F21.3°C 53% 2.1 mph WSW3.4 kmh WSW 4.0 mph6.4 kmh 30.01 in1016.3 mb - 0.00 in0.0 mm 0.00 in0.0 mm
02:00 PM 89.9°F32.2°C 73.1°F22.8°C 58% 3.3 mph NNE5.3 kmh NNE 6.0 mph9.7 kmh 30.01 in1016.3 mb - 0.00 in0.0 mm 0.00 in0.0 mm
02:15 PM 89.8°F32.1°C 71.5°F21.9°C 55% 2.2 mph W3.5 kmh W 8.0 mph12.9 kmh 30.02 in1016.6 mb - 0.00 in0.0 mm 0.00 in0.0 mm
02:30 PM 89.2°F31.8°C 71.5°F21.9°C 56% 3.9 mph NNE6.3 kmh NNE 10.0 mph16.1 kmh 30.02 in1016.6 mb - 0.00 in0.0 mm 0.00 in0.0 mm
02:45 PM 88.6°F31.4°C 71.9°F22.2°C 58% 2.0 mph N3.2 kmh N 4.0 mph6.4 kmh 30.02 in1016.6 mb - 0.00 in0.0 mm 0.00 in0.0 mm
03:00 PM 88.9°F31.6°C 71.7°F22.1°C 57% 3.1 mph WSW5.0 kmh WSW 3.0 mph4.8 kmh 30.02 in1016.6 mb - 0.00 in0.0 mm 0.00 in0.0 mm
03:15 PM 88.9°F31.6°C 71.1°F21.7°C 56% 1.8 mph NW2.9 kmh NW 4.0 mph6.4 kmh 30.02 in1016.6 mb - 0.00 in0.0 mm 0.00 in0.0 mm
03:30 PM 88.4°F31.3°C 69.6°F20.9°C 54% 3.2 mph WSW5.1 kmh WSW 5.0 mph8.0 kmh 30.02 in1016.6 mb - 0.00 in0.0 mm 0.00 in0.0 mm
03:45 PM 88.2°F31.2°C 68.4°F20.2°C 52% 3.9 mph N6.3 kmh N 5.0 mph8.0 kmh 30.02 in1016.6 mb - 0.00 in0.0 mm 0.00 in0.0 mm
04:00 PM 88.3°F31.3°C 70.1°F21.2°C 55% 2.0 mph WSW3.2 kmh WSW 3.0 mph4.8 kmh 30.02 in1016.6 mb - 0.00 in0.0 mm 0.00 in0.0 mm
04:15 PM 88.0°F31.1°C 69.8°F21.0°C 55% 0.9 mph SW1.4 kmh SW 1.0 mph1.6 kmh 30.02 in1016.6 mb - 0.00 in0.0 mm 0.00 in0.0 mm
04:30 PM 87.9°F31.1°C 68.6°F20.3°C 53% 2.1 mph SW3.4 kmh SW 3.0 mph4.8 kmh 30.02 in1016.6 mb - 0.00 in0.0 mm 0.00 in0.0 mm
04:45 PM 87.0°F30.6°C 68.9°F20.5°C 55% 2.3 mph W3.7 kmh W 5.0 mph8.0 kmh 30.03 in1016.9 mb - 0.00 in0.0 mm 0.00 in0.0 mm
05:00 PM 85.5°F29.7°C 69.1°F20.6°C 58% 1.1 mph WSW1.8 kmh WSW 2.0 mph3.2 kmh 30.03 in1016.9 mb - 0.00 in0.0 mm 0.00 in0.0 mm
05:15 PM 83.7°F28.7°C 69.8°F21.0°C 63% 2.5 mph WSW4.0 kmh WSW 3.0 mph4.8 kmh 30.03 in1016.9 mb - 0.00 in0.0 mm 0.00 in0.0 mm
05:30 PM 82.0°F27.8°C 69.9°F21.1°C 67% 1.0 mph WSW1.6 kmh WSW 1.0 mph1.6 kmh 30.03 in1016.9 mb - 0.00 in0.0 mm 0.00 in0.0 mm
05:45 PM 80.5°F26.9°C 69.8°F21.0°C 70% 0.9 mph WSW1.4 kmh WSW 1.0 mph1.6 kmh 30.04 in1017.3 mb - 0.00 in0.0 mm 0.00 in0.0 mm
06:00 PM 79.2°F26.2°C 70.2°F21.2°C 74% 1.1 mph WSW1.8 kmh WSW 1.0 mph1.6 kmh 30.04 in1017.3 mb - 0.00 in0.0 mm 0.00 in0.0 mm
06:15 PM 78.0°F25.6°C 69.8°F21.0°C 76% 1.0 mph WSW1.6 kmh WSW 2.0 mph3.2 kmh 30.05 in1017.6 mb - 0.00 in0.0 mm 0.00 in0.0 mm
06:30 PM 77.0°F25.0°C 70.0°F21.1°C 79% 0.8 mph WSW1.3 kmh WSW 1.0 mph1.6 kmh 30.05 in1017.6 mb - 0.00 in0.0 mm 0.00 in0.0 mm
06:45 PM 76.0°F24.4°C 69.4°F20.8°C 80% 1.3 mph WSW2.1 kmh WSW 2.0 mph3.2 kmh 30.06 in1017.9 mb - 0.00 in0.0 mm 0.00 in0.0 mm
07:00 PM 75.0°F23.9°C 69.1°F20.6°C 82% 1.2 mph WSW1.9 kmh WSW 2.0 mph3.2 kmh 30.07 in1018.3 mb - 0.00 in0.0 mm 0.00 in0.0 mm
07:15 PM 74.0°F23.3°C 68.2°F20.1°C 82% 1.4 mph WSW2.3 kmh WSW 2.0 mph3.2 kmh 30.07 in1018.3 mb - 0.00 in0.0 mm 0.00 in0.0 mm
07:30 PM 73.5°F23.1°C 68.3°F20.2°C 84% Calm Calm -- 30.08 in1018.6 mb - 0.00 in0.0 mm 0.00 in0.0 mm
07:45 PM 73.1°F22.8°C 67.9°F19.9°C 84% 0.1 mph WSW0.2 kmh WSW -- 30.09 in1019.0 mb - 0.00 in0.0 mm 0.00 in0.0 mm
08:00 PM 73.0°F22.8°C 67.5°F19.7°C 83% 2.3 mph WSW3.7 kmh WSW 3.0 mph4.8 kmh 30.10 in1019.3 mb - 0.00 in0.0 mm 0.00 in0.0 mm
08:15 PM 73.3°F22.9°C 67.5°F19.7°C 82% 1.0 mph N1.6 kmh N 3.0 mph4.8 kmh 30.11 in1019.6 mb - 0.00 in0.0 mm 0.00 in0.0 mm
08:30 PM 73.6°F23.1°C 67.0°F19.4°C 80% 0.9 mph N1.4 kmh N 3.0 mph4.8 kmh 30.11 in1019.6 mb - 0.00 in0.0 mm 0.00 in0.0 mm
08:45 PM 74.1°F23.4°C 67.2°F19.6°C 79% 2.7 mph WSW4.3 kmh WSW 3.0 mph4.8 kmh 30.11 in1019.6 mb - 0.00 in0.0 mm 0.00 in0.0 mm
09:00 PM 74.6°F23.7°C 67.3°F19.6°C 78% 0.4 mph WSW0.6 kmh WSW 2.0 mph3.2 kmh 30.12 in1020.0 mb - 0.00 in0.0 mm 0.00 in0.0 mm
09:15 PM 74.6°F23.7°C 66.9°F19.4°C 77% 0.7 mph W1.1 kmh W 3.0 mph4.8 kmh 30.12 in1020.0 mb - 0.00 in0.0 mm 0.00 in0.0 mm
09:30 PM 74.5°F23.6°C 66.4°F19.1°C 76% 1.1 mph WSW1.8 kmh WSW 2.0 mph3.2 kmh 30.12 in1020.0 mb - 0.00 in0.0 mm 0.00 in0.0 mm
09:45 PM 74.3°F23.5°C 66.2°F19.0°C 76% 3.0 mph N4.8 kmh N 5.0 mph8.0 kmh 30.13 in1020.3 mb - 0.00 in0.0 mm 0.00 in0.0 mm
10:00 PM 74.1°F23.4°C 65.3°F18.5°C 74% 1.2 mph W1.9 kmh W 2.0 mph3.2 kmh 30.14 in1020.7 mb - 0.00 in0.0 mm 0.00 in0.0 mm
10:15 PM 73.9°F23.3°C 65.5°F18.6°C 75% 4.2 mph W6.8 kmh W 8.0 mph12.9 kmh 30.14 in1020.7 mb - 0.00 in0.0 mm 0.00 in0.0 mm
10:30 PM 73.7°F23.2°C 65.3°F18.5°C 75% 0.5 mph WSW0.8 kmh WSW 3.0 mph4.8 kmh 30.15 in1021.0 mb - 0.00 in0.0 mm 0.00 in0.0 mm
10:45 PM 73.5°F23.1°C 65.1°F18.4°C 75% 2.2 mph WNW3.5 kmh WNW 6.0 mph9.7 kmh 30.14 in1020.7 mb - 0.00 in0.0 mm 0.00 in0.0 mm
11:00 PM 73.4°F23.0°C 64.6°F18.1°C 74% 1.5 mph WSW2.4 kmh WSW 3.0 mph4.8 kmh 30.15 in1021.0 mb - 0.00 in0.0 mm 0.00 in0.0 mm
11:15 PM 73.2°F22.9°C 64.4°F18.0°C 74% 3.0 mph N4.8 kmh N 8.0 mph12.9 kmh 30.16 in1021.3 mb - 0.00 in0.0 mm 0.00 in0.0 mm
11:30 PM 72.9°F22.7°C 64.2°F17.9°C 74% 1.6 mph WSW2.6 kmh WSW 5.0 mph8.0 kmh 30.16 in1021.3 mb - 0.00 in0.0 mm 0.00 in0.0 mm
11:45 PM 72.5°F22.5°C 64.1°F17.8°C 75% 1.4 mph WSW2.3 kmh WSW 2.0 mph3.2 kmh 30.16 in1021.3 mb - 0.00 in0.0 mm 0.00 in0.0 mm